sensor_id;sensor_type;location;lat;lon;timestamp;P1;durP1;ratioP1;P2;durP2;ratioP2
29550;SDS011;16488;52.396;10.696;2023-04-24T00:02:22;4.78;;;2.22;;
29550;SDS011;16488;52.396;10.696;2023-04-24T00:04:48;4.82;;;2.47;;
29550;SDS011;16488;52.396;10.696;2023-04-24T00:07:14;6.95;;;2.42;;
29550;SDS011;16488;52.396;10.696;2023-04-24T00:09:41;3.03;;;2.30;;
29550;SDS011;16488;52.396;10.696;2023-04-24T00:14:33;2.72;;;2.10;;
29550;SDS011;16488;52.396;10.696;2023-04-24T00:17:00;4.68;;;1.95;;
29550;SDS011;16488;52.396;10.696;2023-04-24T00:19:27;3.35;;;2.20;;
29550;SDS011;16488;52.396;10.696;2023-04-24T00:21:53;4.55;;;2.20;;
29550;SDS011;16488;52.396;10.696;2023-04-24T00:24:19;3.33;;;2.55;;
29550;SDS011;16488;52.396;10.696;2023-04-24T00:26:45;2.00;;;1.83;;
29550;SDS011;16488;52.396;10.696;2023-04-24T00:29:11;3.65;;;2.08;;
29550;SDS011;16488;52.396;10.696;2023-04-24T00:31:37;2.88;;;2.05;;
29550;SDS011;16488;52.396;10.696;2023-04-24T00:34:03;1.88;;;1.70;;
29550;SDS011;16488;52.396;10.696;2023-04-24T00:36:29;5.03;;;2.10;;
29550;SDS011;16488;52.396;10.696;2023-04-24T00:38:55;3.25;;;1.75;;
29550;SDS011;16488;52.396;10.696;2023-04-24T00:41:21;3.10;;;1.85;;
29550;SDS011;16488;52.396;10.696;2023-04-24T00:43:48;3.28;;;2.10;;
29550;SDS011;16488;52.396;10.696;2023-04-24T00:46:14;2.95;;;1.75;;
29550;SDS011;16488;52.396;10.696;2023-04-24T00:48:40;2.35;;;2.13;;
29550;SDS011;16488;52.396;10.696;2023-04-24T00:51:05;4.30;;;2.58;;
29550;SDS011;16488;52.396;10.696;2023-04-24T00:53:31;2.67;;;1.90;;
29550;SDS011;16488;52.396;10.696;2023-04-24T00:55:58;5.88;;;2.03;;
29550;SDS011;16488;52.396;10.696;2023-04-24T00:58:24;3.35;;;2.15;;
29550;SDS011;16488;52.396;10.696;2023-04-24T01:00:50;4.05;;;2.00;;
29550;SDS011;16488;52.396;10.696;2023-04-24T01:03:19;3.08;;;2.22;;
29550;SDS011;16488;52.396;10.696;2023-04-24T01:05:46;2.80;;;2.30;;
29550;SDS011;16488;52.396;10.696;2023-04-24T01:10:38;2.38;;;2.08;;
29550;SDS011;16488;52.396;10.696;2023-04-24T01:13:05;2.67;;;1.85;;
29550;SDS011;16488;52.396;10.696;2023-04-24T01:15:33;3.38;;;2.10;;
29550;SDS011;16488;52.396;10.696;2023-04-24T01:17:59;3.53;;;2.10;;
29550;SDS011;16488;52.396;10.696;2023-04-24T01:20:25;8.43;;;2.53;;
29550;SDS011;16488;52.396;10.696;2023-04-24T01:22:51;4.40;;;2.20;;
29550;SDS011;16488;52.396;10.696;2023-04-24T01:25:18;5.68;;;2.42;;
29550;SDS011;16488;52.396;10.696;2023-04-24T01:27:43;4.53;;;2.28;;
29550;SDS011;16488;52.396;10.696;2023-04-24T01:30:09;6.18;;;2.05;;
29550;SDS011;16488;52.396;10.696;2023-04-24T01:35:02;3.45;;;2.20;;
29550;SDS011;16488;52.396;10.696;2023-04-24T01:37:28;2.38;;;1.70;;
29550;SDS011;16488;52.396;10.696;2023-04-24T01:39:54;5.60;;;1.50;;
29550;SDS011;16488;52.396;10.696;2023-04-24T01:42:20;3.58;;;1.90;;
29550;SDS011;16488;52.396;10.696;2023-04-24T01:47:12;3.35;;;1.80;;
29550;SDS011;16488;52.396;10.696;2023-04-24T01:49:38;3.95;;;2.05;;
29550;SDS011;16488;52.396;10.696;2023-04-24T01:52:04;2.45;;;1.27;;
29550;SDS011;16488;52.396;10.696;2023-04-24T01:54:29;5.22;;;1.63;;
29550;SDS011;16488;52.396;10.696;2023-04-24T01:56:55;5.40;;;1.85;;
29550;SDS011;16488;52.396;10.696;2023-04-24T01:59:21;14.25;;;1.42;;
29550;SDS011;16488;52.396;10.696;2023-04-24T02:01:48;1.70;;;1.50;;
29550;SDS011;16488;52.396;10.696;2023-04-24T02:04:14;5.00;;;1.50;;
29550;SDS011;16488;52.396;10.696;2023-04-24T02:06:40;3.85;;;1.13;;
29550;SDS011;16488;52.396;10.696;2023-04-24T02:09:05;6.88;;;1.88;;
29550;SDS011;16488;52.396;10.696;2023-04-24T02:11:31;2.55;;;1.30;;
29550;SDS011;16488;52.396;10.696;2023-04-24T02:13:57;3.17;;;1.40;;
29550;SDS011;16488;52.396;10.696;2023-04-24T02:16:22;5.85;;;1.92;;
29550;SDS011;16488;52.396;10.696;2023-04-24T02:18:48;6.45;;;2.05;;
29550;SDS011;16488;52.396;10.696;2023-04-24T02:21:14;4.15;;;1.67;;
29550;SDS011;16488;52.396;10.696;2023-04-24T02:23:39;3.60;;;1.38;;
29550;SDS011;16488;52.396;10.696;2023-04-24T02:26:05;2.37;;;1.67;;
29550;SDS011;16488;52.396;10.696;2023-04-24T02:28:31;2.53;;;1.35;;
29550;SDS011;16488;52.396;10.696;2023-04-24T02:30:57;5.07;;;1.50;;
29550;SDS011;16488;52.396;10.696;2023-04-24T02:33:23;3.85;;;1.88;;
29550;SDS011;16488;52.396;10.696;2023-04-24T02:35:49;3.05;;;1.83;;
29550;SDS011;16488;52.396;10.696;2023-04-24T02:38:14;2.23;;;1.50;;
29550;SDS011;16488;52.396;10.696;2023-04-24T02:40:40;2.13;;;1.50;;
29550;SDS011;16488;52.396;10.696;2023-04-24T02:43:05;3.97;;;1.87;;
29550;SDS011;16488;52.396;10.696;2023-04-24T02:45:31;1.87;;;1.67;;
29550;SDS011;16488;52.396;10.696;2023-04-24T02:47:59;2.83;;;1.45;;
29550;SDS011;16488;52.396;10.696;2023-04-24T02:50:25;2.60;;;1.88;;
29550;SDS011;16488;52.396;10.696;2023-04-24T02:52:50;1.60;;;1.38;;
29550;SDS011;16488;52.396;10.696;2023-04-24T02:55:16;2.10;;;1.67;;
29550;SDS011;16488;52.396;10.696;2023-04-24T02:57:41;2.45;;;1.67;;
29550;SDS011;16488;52.396;10.696;2023-04-24T03:00:07;3.85;;;1.65;;
29550;SDS011;16488;52.396;10.696;2023-04-24T03:02:34;3.13;;;2.10;;
29550;SDS011;16488;52.396;10.696;2023-04-24T03:04:59;2.85;;;2.00;;
29550;SDS011;16488;52.396;10.696;2023-04-24T03:07:25;3.80;;;2.00;;
29550;SDS011;16488;52.396;10.696;2023-04-24T03:09:50;6.00;;;1.87;;
29550;SDS011;16488;52.396;10.696;2023-04-24T03:12:16;5.55;;;2.42;;
29550;SDS011;16488;52.396;10.696;2023-04-24T03:17:08;6.53;;;2.15;;
29550;SDS011;16488;52.396;10.696;2023-04-24T03:19:34;6.60;;;1.98;;
29550;SDS011;16488;52.396;10.696;2023-04-24T03:22:01;3.85;;;1.55;;
29550;SDS011;16488;52.396;10.696;2023-04-24T03:24:28;5.13;;;2.10;;
29550;SDS011;16488;52.396;10.696;2023-04-24T03:26:53;4.40;;;2.27;;
29550;SDS011;16488;52.396;10.696;2023-04-24T03:29:19;3.87;;;1.70;;
29550;SDS011;16488;52.396;10.696;2023-04-24T03:31:44;3.50;;;1.80;;
29550;SDS011;16488;52.396;10.696;2023-04-24T03:34:10;5.37;;;1.87;;
29550;SDS011;16488;52.396;10.696;2023-04-24T03:36:36;3.88;;;2.25;;
29550;SDS011;16488;52.396;10.696;2023-04-24T03:39:01;6.90;;;2.30;;
29550;SDS011;16488;52.396;10.696;2023-04-24T03:41:27;4.13;;;2.10;;
29550;SDS011;16488;52.396;10.696;2023-04-24T03:43:52;2.53;;;2.20;;
29550;SDS011;16488;52.396;10.696;2023-04-24T03:46:18;4.90;;;1.95;;
29550;SDS011;16488;52.396;10.696;2023-04-24T03:48:44;3.22;;;2.22;;
29550;SDS011;16488;52.396;10.696;2023-04-24T03:51:09;4.53;;;1.97;;
29550;SDS011;16488;52.396;10.696;2023-04-24T03:53:35;5.10;;;2.30;;
29550;SDS011;16488;52.396;10.696;2023-04-24T03:56:01;3.58;;;2.35;;
29550;SDS011;16488;52.396;10.696;2023-04-24T03:58:27;3.10;;;1.67;;
29550;SDS011;16488;52.396;10.696;2023-04-24T04:00:52;2.55;;;1.90;;
29550;SDS011;16488;52.396;10.696;2023-04-24T04:03:18;3.13;;;1.60;;
29550;SDS011;16488;52.396;10.696;2023-04-24T04:05:44;3.03;;;2.20;;
29550;SDS011;16488;52.396;10.696;2023-04-24T04:08:10;3.65;;;1.20;;
29550;SDS011;16488;52.396;10.696;2023-04-24T04:10:35;2.40;;;1.88;;
29550;SDS011;16488;52.396;10.696;2023-04-24T04:13:01;2.72;;;1.58;;
29550;SDS011;16488;52.396;10.696;2023-04-24T04:15:26;2.65;;;1.75;;
29550;SDS011;16488;52.396;10.696;2023-04-24T04:17:52;5.80;;;1.80;;
29550;SDS011;16488;52.396;10.696;2023-04-24T04:20:18;1.88;;;1.55;;
29550;SDS011;16488;52.396;10.696;2023-04-24T04:22:43;2.00;;;1.63;;
29550;SDS011;16488;52.396;10.696;2023-04-24T04:25:09;2.30;;;1.67;;
29550;SDS011;16488;52.396;10.696;2023-04-24T04:27:35;2.88;;;1.80;;
29550;SDS011;16488;52.396;10.696;2023-04-24T04:30:01;1.98;;;1.83;;
29550;SDS011;16488;52.396;10.696;2023-04-24T04:32:30;3.58;;;1.90;;
29550;SDS011;16488;52.396;10.696;2023-04-24T04:34:58;5.32;;;2.40;;
29550;SDS011;16488;52.396;10.696;2023-04-24T04:37:28;4.35;;;2.42;;
29550;SDS011;16488;52.396;10.696;2023-04-24T04:39:58;7.68;;;3.30;;
29550;SDS011;16488;52.396;10.696;2023-04-24T04:42:24;4.25;;;2.88;;
29550;SDS011;16488;52.396;10.696;2023-04-24T04:44:50;7.97;;;3.78;;
29550;SDS011;16488;52.396;10.696;2023-04-24T04:47:16;11.45;;;3.15;;
29550;SDS011;16488;52.396;10.696;2023-04-24T04:52:08;4.50;;;3.10;;
29550;SDS011;16488;52.396;10.696;2023-04-24T04:54:34;5.75;;;2.22;;
29550;SDS011;16488;52.396;10.696;2023-04-24T04:57:00;5.85;;;2.00;;
29550;SDS011;16488;52.396;10.696;2023-04-24T04:59:26;3.53;;;2.40;;
29550;SDS011;16488;52.396;10.696;2023-04-24T05:01:52;3.10;;;2.08;;
29550;SDS011;16488;52.396;10.696;2023-04-24T05:04:18;4.15;;;1.67;;
29550;SDS011;16488;52.396;10.696;2023-04-24T05:06:43;2.83;;;1.73;;
29550;SDS011;16488;52.396;10.696;2023-04-24T05:09:09;3.13;;;1.60;;
29550;SDS011;16488;52.396;10.696;2023-04-24T05:11:35;2.67;;;1.23;;
29550;SDS011;16488;52.396;10.696;2023-04-24T05:14:01;4.60;;;2.30;;
29550;SDS011;16488;52.396;10.696;2023-04-24T05:16:26;1.77;;;1.58;;
29550;SDS011;16488;52.396;10.696;2023-04-24T05:18:52;1.45;;;1.33;;
29550;SDS011;16488;52.396;10.696;2023-04-24T05:21:18;3.10;;;1.42;;
29550;SDS011;16488;52.396;10.696;2023-04-24T05:23:43;5.28;;;1.30;;
29550;SDS011;16488;52.396;10.696;2023-04-24T05:26:09;3.40;;;1.27;;
29550;SDS011;16488;52.396;10.696;2023-04-24T05:28:35;3.03;;;1.42;;
29550;SDS011;16488;52.396;10.696;2023-04-24T05:31:02;3.17;;;1.30;;
29550;SDS011;16488;52.396;10.696;2023-04-24T05:33:28;1.30;;;1.20;;
29550;SDS011;16488;52.396;10.696;2023-04-24T05:35:54;3.22;;;1.85;;
29550;SDS011;16488;52.396;10.696;2023-04-24T05:38:19;5.80;;;1.30;;
29550;SDS011;16488;52.396;10.696;2023-04-24T05:40:45;5.57;;;1.45;;
29550;SDS011;16488;52.396;10.696;2023-04-24T05:43:11;1.42;;;1.20;;
29550;SDS011;16488;52.396;10.696;2023-04-24T05:45:37;3.20;;;1.23;;
29550;SDS011;16488;52.396;10.696;2023-04-24T05:48:03;2.72;;;1.38;;
29550;SDS011;16488;52.396;10.696;2023-04-24T05:50:29;3.50;;;1.20;;
29550;SDS011;16488;52.396;10.696;2023-04-24T05:52:55;2.50;;;1.20;;
29550;SDS011;16488;52.396;10.696;2023-04-24T05:55:23;1.23;;;1.02;;
29550;SDS011;16488;52.396;10.696;2023-04-24T06:00:15;1.70;;;1.40;;
29550;SDS011;16488;52.396;10.696;2023-04-24T06:02:40;2.17;;;1.10;;
29550;SDS011;16488;52.396;10.696;2023-04-24T06:05:06;3.78;;;1.58;;
29550;SDS011;16488;52.396;10.696;2023-04-24T06:07:33;1.73;;;1.17;;
29550;SDS011;16488;52.396;10.696;2023-04-24T06:09:58;3.53;;;1.48;;
29550;SDS011;16488;52.396;10.696;2023-04-24T06:12:25;2.17;;;1.00;;
29550;SDS011;16488;52.396;10.696;2023-04-24T06:17:16;4.47;;;1.23;;
29550;SDS011;16488;52.396;10.696;2023-04-24T06:19:42;2.75;;;1.25;;
29550;SDS011;16488;52.396;10.696;2023-04-24T06:22:08;1.30;;;1.20;;
29550;SDS011;16488;52.396;10.696;2023-04-24T06:24:34;6.63;;;1.20;;
29550;SDS011;16488;52.396;10.696;2023-04-24T06:26:59;2.97;;;1.52;;
29550;SDS011;16488;52.396;10.696;2023-04-24T06:31:52;1.40;;;0.98;;
29550;SDS011;16488;52.396;10.696;2023-04-24T06:34:18;3.05;;;1.10;;
29550;SDS011;16488;52.396;10.696;2023-04-24T06:36:43;1.17;;;1.03;;
29550;SDS011;16488;52.396;10.696;2023-04-24T06:39:09;5.25;;;1.80;;
29550;SDS011;16488;52.396;10.696;2023-04-24T06:41:35;2.95;;;1.52;;
29550;SDS011;16488;52.396;10.696;2023-04-24T06:44:00;3.17;;;1.40;;
29550;SDS011;16488;52.396;10.696;2023-04-24T06:46:26;3.10;;;1.42;;
29550;SDS011;16488;52.396;10.696;2023-04-24T06:48:53;3.47;;;1.75;;
29550;SDS011;16488;52.396;10.696;2023-04-24T06:51:24;1.52;;;1.30;;
29550;SDS011;16488;52.396;10.696;2023-04-24T06:53:51;2.33;;;1.45;;
29550;SDS011;16488;52.396;10.696;2023-04-24T06:56:18;3.50;;;1.50;;
29550;SDS011;16488;52.396;10.696;2023-04-24T06:58:44;1.88;;;1.60;;
29550;SDS011;16488;52.396;10.696;2023-04-24T07:01:10;2.25;;;1.45;;
29550;SDS011;16488;52.396;10.696;2023-04-24T07:03:36;2.80;;;1.60;;
29550;SDS011;16488;52.396;10.696;2023-04-24T07:06:01;5.40;;;1.90;;
29550;SDS011;16488;52.396;10.696;2023-04-24T07:10:55;4.63;;;1.52;;
29550;SDS011;16488;52.396;10.696;2023-04-24T07:13:22;2.60;;;1.73;;
29550;SDS011;16488;52.396;10.696;2023-04-24T07:15:48;3.03;;;1.42;;
29550;SDS011;16488;52.396;10.696;2023-04-24T07:18:15;5.93;;;1.75;;
29550;SDS011;16488;52.396;10.696;2023-04-24T07:20:42;2.47;;;1.60;;
29550;SDS011;16488;52.396;10.696;2023-04-24T07:23:07;3.88;;;2.15;;
29550;SDS011;16488;52.396;10.696;2023-04-24T07:25:33;2.25;;;1.50;;
29550;SDS011;16488;52.396;10.696;2023-04-24T07:27:59;1.55;;;1.35;;
29550;SDS011;16488;52.396;10.696;2023-04-24T07:30:24;9.73;;;1.58;;
29550;SDS011;16488;52.396;10.696;2023-04-24T07:32:50;8.00;;;2.00;;
29550;SDS011;16488;52.396;10.696;2023-04-24T07:35:16;2.97;;;1.50;;
29550;SDS011;16488;52.396;10.696;2023-04-24T07:37:42;2.50;;;1.70;;
29550;SDS011;16488;52.396;10.696;2023-04-24T07:40:11;3.50;;;1.85;;
29550;SDS011;16488;52.396;10.696;2023-04-24T07:42:40;3.97;;;1.60;;
29550;SDS011;16488;52.396;10.696;2023-04-24T07:45:06;5.53;;;1.65;;
29550;SDS011;16488;52.396;10.696;2023-04-24T07:47:34;1.92;;;1.60;;
29550;SDS011;16488;52.396;10.696;2023-04-24T07:50:01;2.60;;;1.48;;
29550;SDS011;16488;52.396;10.696;2023-04-24T07:52:27;3.55;;;1.67;;
29550;SDS011;16488;52.396;10.696;2023-04-24T07:54:54;1.92;;;1.73;;
29550;SDS011;16488;52.396;10.696;2023-04-24T07:57:23;3.28;;;1.52;;
29550;SDS011;16488;52.396;10.696;2023-04-24T07:59:49;2.53;;;1.50;;
29550;SDS011;16488;52.396;10.696;2023-04-24T08:02:15;3.20;;;1.48;;
29550;SDS011;16488;52.396;10.696;2023-04-24T08:04:41;5.20;;;2.03;;
29550;SDS011;16488;52.396;10.696;2023-04-24T08:07:07;6.45;;;1.70;;
29550;SDS011;16488;52.396;10.696;2023-04-24T08:09:33;3.25;;;1.77;;
29550;SDS011;16488;52.396;10.696;2023-04-24T08:11:59;2.20;;;1.65;;
29550;SDS011;16488;52.396;10.696;2023-04-24T08:14:24;4.43;;;2.38;;
29550;SDS011;16488;52.396;10.696;2023-04-24T08:16:50;3.83;;;1.90;;
29550;SDS011;16488;52.396;10.696;2023-04-24T08:19:17;4.03;;;2.55;;
29550;SDS011;16488;52.396;10.696;2023-04-24T08:21:43;3.55;;;2.80;;
29550;SDS011;16488;52.396;10.696;2023-04-24T08:24:08;3.22;;;2.67;;
29550;SDS011;16488;52.396;10.696;2023-04-24T08:26:34;5.40;;;2.78;;
29550;SDS011;16488;52.396;10.696;2023-04-24T08:28:59;3.38;;;3.00;;
29550;SDS011;16488;52.396;10.696;2023-04-24T08:31:25;3.33;;;2.88;;
29550;SDS011;16488;52.396;10.696;2023-04-24T08:33:51;3.28;;;2.97;;
29550;SDS011;16488;52.396;10.696;2023-04-24T08:36:17;5.47;;;3.08;;
29550;SDS011;16488;52.396;10.696;2023-04-24T08:38:42;4.25;;;3.00;;
29550;SDS011;16488;52.396;10.696;2023-04-24T08:41:08;5.18;;;2.60;;
29550;SDS011;16488;52.396;10.696;2023-04-24T08:46:03;3.10;;;2.80;;
29550;SDS011;16488;52.396;10.696;2023-04-24T08:48:29;7.88;;;3.10;;
29550;SDS011;16488;52.396;10.696;2023-04-24T08:50:56;3.80;;;2.53;;
29550;SDS011;16488;52.396;10.696;2023-04-24T08:53:22;3.97;;;2.95;;
29550;SDS011;16488;52.396;10.696;2023-04-24T08:55:50;6.55;;;2.95;;
29550;SDS011;16488;52.396;10.696;2023-04-24T08:58:18;4.07;;;3.00;;
29550;SDS011;16488;52.396;10.696;2023-04-24T09:03:13;3.65;;;3.00;;
29550;SDS011;16488;52.396;10.696;2023-04-24T09:05:40;12.23;;;4.30;;
29550;SDS011;16488;52.396;10.696;2023-04-24T09:08:11;8.45;;;3.90;;
29550;SDS011;16488;52.396;10.696;2023-04-24T09:10:39;5.85;;;3.45;;
29550;SDS011;16488;52.396;10.696;2023-04-24T09:13:05;9.65;;;4.20;;
29550;SDS011;16488;52.396;10.696;2023-04-24T09:15:31;5.28;;;3.67;;
29550;SDS011;16488;52.396;10.696;2023-04-24T09:17:57;6.90;;;4.30;;
29550;SDS011;16488;52.396;10.696;2023-04-24T09:20:23;7.38;;;3.83;;
29550;SDS011;16488;52.396;10.696;2023-04-24T09:22:48;5.38;;;4.60;;
29550;SDS011;16488;52.396;10.696;2023-04-24T09:25:20;7.22;;;4.97;;
29550;SDS011;16488;52.396;10.696;2023-04-24T09:27:46;9.02;;;5.38;;
29550;SDS011;16488;52.396;10.696;2023-04-24T09:30:12;11.30;;;4.85;;
29550;SDS011;16488;52.396;10.696;2023-04-24T09:35:13;9.43;;;5.72;;
29550;SDS011;16488;52.396;10.696;2023-04-24T09:37:44;9.52;;;5.97;;
29550;SDS011;16488;52.396;10.696;2023-04-24T09:42:37;7.03;;;5.05;;
29550;SDS011;16488;52.396;10.696;2023-04-24T09:45:03;8.55;;;5.35;;
29550;SDS011;16488;52.396;10.696;2023-04-24T09:47:39;8.90;;;5.03;;
29550;SDS011;16488;52.396;10.696;2023-04-24T09:50:09;8.07;;;4.45;;
29550;SDS011;16488;52.396;10.696;2023-04-24T09:52:44;7.85;;;5.13;;
29550;SDS011;16488;52.396;10.696;2023-04-24T09:56:18;7.38;;;5.07;;
29550;SDS011;16488;52.396;10.696;2023-04-24T09:58:45;7.40;;;4.95;;
29550;SDS011;16488;52.396;10.696;2023-04-24T10:01:11;7.18;;;4.82;;
29550;SDS011;16488;52.396;10.696;2023-04-24T10:03:37;8.73;;;4.30;;
29550;SDS011;16488;52.396;10.696;2023-04-24T10:06:06;7.38;;;4.25;;
29550;SDS011;16488;52.396;10.696;2023-04-24T10:08:36;6.70;;;4.50;;
29550;SDS011;16488;52.396;10.696;2023-04-24T10:11:02;8.98;;;5.50;;
29550;SDS011;16488;52.396;10.696;2023-04-24T10:13:28;8.20;;;4.65;;
29550;SDS011;16488;52.396;10.696;2023-04-24T10:15:53;9.50;;;4.55;;
29550;SDS011;16488;52.396;10.696;2023-04-24T10:18:21;9.30;;;4.25;;
29550;SDS011;16488;52.396;10.696;2023-04-24T10:20:46;8.75;;;4.55;;
29550;SDS011;16488;52.396;10.696;2023-04-24T10:23:12;5.63;;;3.92;;
29550;SDS011;16488;52.396;10.696;2023-04-24T10:25:38;5.57;;;3.80;;
29550;SDS011;16488;52.396;10.696;2023-04-24T10:28:04;4.60;;;3.53;;
29550;SDS011;16488;52.396;10.696;2023-04-24T10:30:31;4.63;;;3.90;;
29550;SDS011;16488;52.396;10.696;2023-04-24T10:33:01;6.13;;;3.40;;
29550;SDS011;16488;52.396;10.696;2023-04-24T10:35:30;9.07;;;3.45;;
29550;SDS011;16488;52.396;10.696;2023-04-24T10:37:59;6.63;;;4.05;;
29550;SDS011;16488;52.396;10.696;2023-04-24T10:40:32;6.13;;;3.45;;
29550;SDS011;16488;52.396;10.696;2023-04-24T10:43:01;7.82;;;3.75;;
29550;SDS011;16488;52.396;10.696;2023-04-24T10:45:28;7.30;;;3.63;;
29550;SDS011;16488;52.396;10.696;2023-04-24T10:48:04;4.05;;;3.08;;
29550;SDS011;16488;52.396;10.696;2023-04-24T10:50:42;9.40;;;3.80;;
29550;SDS011;16488;52.396;10.696;2023-04-24T10:53:13;6.03;;;3.83;;
29550;SDS011;16488;52.396;10.696;2023-04-24T10:55:50;3.63;;;3.17;;
29550;SDS011;16488;52.396;10.696;2023-04-24T10:58:21;5.78;;;4.07;;
29550;SDS011;16488;52.396;10.696;2023-04-24T11:00:57;7.38;;;3.28;;
29550;SDS011;16488;52.396;10.696;2023-04-24T11:03:31;4.75;;;3.00;;
29550;SDS011;16488;52.396;10.696;2023-04-24T11:06:02;6.32;;;3.55;;
29550;SDS011;16488;52.396;10.696;2023-04-24T11:16:28;5.82;;;3.33;;
29550;SDS011;16488;52.396;10.696;2023-04-24T11:19:11;4.88;;;2.92;;
29550;SDS011;16488;52.396;10.696;2023-04-24T11:24:24;3.72;;;2.63;;
29550;SDS011;16488;52.396;10.696;2023-04-24T11:26:58;3.13;;;2.60;;
29550;SDS011;16488;52.396;10.696;2023-04-24T11:35:07;5.00;;;2.17;;
29550;SDS011;16488;52.396;10.696;2023-04-24T11:37:55;5.60;;;1.90;;
29550;SDS011;16488;52.396;10.696;2023-04-24T11:40:22;7.25;;;2.65;;
29550;SDS011;16488;52.396;10.696;2023-04-24T11:42:48;2.58;;;2.38;;
29550;SDS011;16488;52.396;10.696;2023-04-24T11:45:21;7.57;;;2.40;;
29550;SDS011;16488;52.396;10.696;2023-04-24T11:47:48;4.18;;;2.30;;
29550;SDS011;16488;52.396;10.696;2023-04-24T11:50:15;2.90;;;1.90;;
29550;SDS011;16488;52.396;10.696;2023-04-24T11:52:43;3.35;;;2.13;;
29550;SDS011;16488;52.396;10.696;2023-04-24T11:57:47;2.88;;;2.22;;
29550;SDS011;16488;52.396;10.696;2023-04-24T12:00:18;3.22;;;2.25;;
29550;SDS011;16488;52.396;10.696;2023-04-24T12:02:48;3.28;;;2.00;;
29550;SDS011;16488;52.396;10.696;2023-04-24T12:07:50;1.65;;;1.55;;
29550;SDS011;16488;52.396;10.696;2023-04-24T12:10:20;5.60;;;2.20;;
29550;SDS011;16488;52.396;10.696;2023-04-24T12:12:47;5.00;;;1.95;;
29550;SDS011;16488;52.396;10.696;2023-04-24T12:15:15;5.03;;;1.80;;
29550;SDS011;16488;52.396;10.696;2023-04-24T12:17:42;5.95;;;2.55;;
29550;SDS011;16488;52.396;10.696;2023-04-24T12:20:08;2.15;;;1.52;;
29550;SDS011;16488;52.396;10.696;2023-04-24T12:22:50;3.80;;;2.13;;
29550;SDS011;16488;52.396;10.696;2023-04-24T12:25:24;2.45;;;1.73;;
29550;SDS011;16488;52.396;10.696;2023-04-24T12:30:29;2.30;;;1.48;;
29550;SDS011;16488;52.396;10.696;2023-04-24T12:32:59;2.15;;;1.95;;
29550;SDS011;16488;52.396;10.696;2023-04-24T12:35:27;2.03;;;1.83;;
29550;SDS011;16488;52.396;10.696;2023-04-24T12:37:54;3.13;;;1.60;;
29550;SDS011;16488;52.396;10.696;2023-04-24T12:40:20;3.67;;;1.90;;
29550;SDS011;16488;52.396;10.696;2023-04-24T12:42:51;6.32;;;2.28;;
29550;SDS011;16488;52.396;10.696;2023-04-24T12:45:17;3.63;;;1.80;;
29550;SDS011;16488;52.396;10.696;2023-04-24T12:47:44;2.58;;;1.70;;
29550;SDS011;16488;52.396;10.696;2023-04-24T12:50:11;2.55;;;2.00;;
29550;SDS011;16488;52.396;10.696;2023-04-24T12:52:38;4.70;;;1.98;;
29550;SDS011;16488;52.396;10.696;2023-04-24T12:57:32;2.40;;;1.92;;
29550;SDS011;16488;52.396;10.696;2023-04-24T12:59:59;2.28;;;2.08;;
29550;SDS011;16488;52.396;10.696;2023-04-24T13:02:26;2.30;;;1.90;;
29550;SDS011;16488;52.396;10.696;2023-04-24T13:04:54;2.78;;;2.22;;
29550;SDS011;16488;52.396;10.696;2023-04-24T13:07:19;2.95;;;1.98;;
29550;SDS011;16488;52.396;10.696;2023-04-24T13:09:47;3.00;;;1.90;;
29550;SDS011;16488;52.396;10.696;2023-04-24T13:12:14;2.65;;;1.95;;
29550;SDS011;16488;52.396;10.696;2023-04-24T13:14:39;2.88;;;2.55;;
29550;SDS011;16488;52.396;10.696;2023-04-24T13:17:05;3.72;;;2.00;;
29550;SDS011;16488;52.396;10.696;2023-04-24T13:19:39;1.60;;;1.50;;
29550;SDS011;16488;52.396;10.696;2023-04-24T13:22:05;2.35;;;1.15;;
29550;SDS011;16488;52.396;10.696;2023-04-24T13:24:32;4.22;;;1.38;;
29550;SDS011;16488;52.396;10.696;2023-04-24T13:26:58;2.72;;;1.00;;
29550;SDS011;16488;52.396;10.696;2023-04-24T13:29:25;1.65;;;1.08;;
29550;SDS011;16488;52.396;10.696;2023-04-24T13:31:52;1.50;;;1.15;;
29550;SDS011;16488;52.396;10.696;2023-04-24T13:34:22;1.42;;;1.20;;
29550;SDS011;16488;52.396;10.696;2023-04-24T13:36:49;3.30;;;1.63;;
29550;SDS011;16488;52.396;10.696;2023-04-24T13:39:16;1.33;;;1.23;;
29550;SDS011;16488;52.396;10.696;2023-04-24T13:41:41;1.70;;;1.60;;
29550;SDS011;16488;52.396;10.696;2023-04-24T13:44:07;2.20;;;2.00;;
29550;SDS011;16488;52.396;10.696;2023-04-24T13:46:33;2.33;;;1.77;;
29550;SDS011;16488;52.396;10.696;2023-04-24T13:48:59;1.50;;;1.40;;
29550;SDS011;16488;52.396;10.696;2023-04-24T13:51:25;1.63;;;1.35;;
29550;SDS011;16488;52.396;10.696;2023-04-24T13:53:53;1.65;;;1.40;;
29550;SDS011;16488;52.396;10.696;2023-04-24T13:56:20;1.45;;;1.10;;
29550;SDS011;16488;52.396;10.696;2023-04-24T13:58:46;1.70;;;1.60;;
29550;SDS011;16488;52.396;10.696;2023-04-24T14:01:11;3.95;;;1.50;;
29550;SDS011;16488;52.396;10.696;2023-04-24T14:06:03;2.25;;;1.83;;
29550;SDS011;16488;52.396;10.696;2023-04-24T14:08:29;4.15;;;1.73;;
29550;SDS011;16488;52.396;10.696;2023-04-24T14:10:55;3.93;;;2.13;;
29550;SDS011;16488;52.396;10.696;2023-04-24T14:13:20;3.72;;;2.20;;
29550;SDS011;16488;52.396;10.696;2023-04-24T14:15:46;2.33;;;2.13;;
29550;SDS011;16488;52.396;10.696;2023-04-24T14:18:12;4.03;;;2.42;;
29550;SDS011;16488;52.396;10.696;2023-04-24T14:20:38;2.65;;;2.10;;
29550;SDS011;16488;52.396;10.696;2023-04-24T14:23:03;1.63;;;1.42;;
29550;SDS011;16488;52.396;10.696;2023-04-24T14:25:29;2.45;;;2.03;;
29550;SDS011;16488;52.396;10.696;2023-04-24T14:27:55;2.28;;;1.88;;
29550;SDS011;16488;52.396;10.696;2023-04-24T14:30:21;2.33;;;1.80;;
29550;SDS011;16488;52.396;10.696;2023-04-24T14:32:47;4.35;;;1.50;;
29550;SDS011;16488;52.396;10.696;2023-04-24T14:37:39;1.80;;;1.63;;
29550;SDS011;16488;52.396;10.696;2023-04-24T14:40:06;2.78;;;1.50;;
29550;SDS011;16488;52.396;10.696;2023-04-24T14:42:33;6.55;;;1.80;;
29550;SDS011;16488;52.396;10.696;2023-04-24T14:44:59;2.85;;;1.48;;
29550;SDS011;16488;52.396;10.696;2023-04-24T14:47:24;2.40;;;1.63;;
29550;SDS011;16488;52.396;10.696;2023-04-24T14:49:50;4.97;;;1.60;;
29550;SDS011;16488;52.396;10.696;2023-04-24T14:52:16;3.25;;;1.30;;
29550;SDS011;16488;52.396;10.696;2023-04-24T14:54:42;1.60;;;1.30;;
29550;SDS011;16488;52.396;10.696;2023-04-24T14:57:08;2.05;;;1.05;;
29550;SDS011;16488;52.396;10.696;2023-04-24T14:59:34;2.80;;;1.05;;
29550;SDS011;16488;52.396;10.696;2023-04-24T15:01:59;1.08;;;0.70;;
29550;SDS011;16488;52.396;10.696;2023-04-24T15:04:26;0.80;;;0.80;;
29550;SDS011;16488;52.396;10.696;2023-04-24T15:06:53;1.70;;;0.82;;
29550;SDS011;16488;52.396;10.696;2023-04-24T15:09:20;1.13;;;0.70;;
29550;SDS011;16488;52.396;10.696;2023-04-24T15:11:46;0.82;;;0.57;;
29550;SDS011;16488;52.396;10.696;2023-04-24T15:14:12;3.58;;;0.50;;
29550;SDS011;16488;52.396;10.696;2023-04-24T15:16:38;5.70;;;0.63;;
29550;SDS011;16488;52.396;10.696;2023-04-24T15:19:04;0.75;;;0.75;;
29550;SDS011;16488;52.396;10.696;2023-04-24T15:21:29;1.35;;;0.90;;
29550;SDS011;16488;52.396;10.696;2023-04-24T15:26:22;1.33;;;1.08;;
29550;SDS011;16488;52.396;10.696;2023-04-24T15:28:48;2.88;;;0.90;;
29550;SDS011;16488;52.396;10.696;2023-04-24T15:31:14;0.90;;;0.90;;
29550;SDS011;16488;52.396;10.696;2023-04-24T15:33:40;5.25;;;0.80;;
29550;SDS011;16488;52.396;10.696;2023-04-24T15:36:06;1.02;;;1.00;;
29550;SDS011;16488;52.396;10.696;2023-04-24T15:38:32;2.78;;;1.40;;
29550;SDS011;16488;52.396;10.696;2023-04-24T15:40:57;0.98;;;0.98;;